sensor_id;sensor_type;location;lat;lon;timestamp;pressure;altitude;pressure_sealevel;temperature;humidity
75991;BME280;64673;52.276;10.560;2023-04-24T00:00:10;99328.63;;;12.69;77.66
75991;BME280;64673;52.276;10.560;2023-04-24T00:02:38;99324.94;;;12.65;76.83
75991;BME280;64673;52.276;10.560;2023-04-24T00:05:04;99329.84;;;12.55;76.96
75991;BME280;64673;52.276;10.560;2023-04-24T00:07:30;99332.31;;;12.42;77.18
75991;BME280;64673;52.276;10.560;2023-04-24T00:09:56;99332.09;;;12.30;77.43
75991;BME280;64673;52.276;10.560;2023-04-24T00:12:21;99321.50;;;12.42;76.12
75991;BME280;64673;52.276;10.560;2023-04-24T00:14:46;99322.03;;;12.53;75.53
75991;BME280;64673;52.276;10.560;2023-04-24T00:17:12;99323.88;;;12.35;76.89
75991;BME280;64673;52.276;10.560;2023-04-24T00:19:37;99324.19;;;12.34;77.10
75991;BME280;64673;52.276;10.560;2023-04-24T00:22:03;99316.22;;;12.29;76.63
75991;BME280;64673;52.276;10.560;2023-04-24T00:24:28;99304.22;;;12.21;77.07
75991;BME280;64673;52.276;10.560;2023-04-24T00:26:54;99309.38;;;12.31;76.60
75991;BME280;64673;52.276;10.560;2023-04-24T00:29:19;99310.53;;;12.39;76.26
75991;BME280;64673;52.276;10.560;2023-04-24T00:31:45;99315.41;;;12.28;76.23
75991;BME280;64673;52.276;10.560;2023-04-24T00:34:10;99299.53;;;12.35;75.92
75991;BME280;64673;52.276;10.560;2023-04-24T00:36:36;99298.44;;;12.36;76.26
75991;BME280;64673;52.276;10.560;2023-04-24T00:39:02;99308.00;;;12.42;75.05
75991;BME280;64673;52.276;10.560;2023-04-24T00:41:27;99307.66;;;12.35;74.99
75991;BME280;64673;52.276;10.560;2023-04-24T00:43:53;99320.19;;;12.31;75.45
75991;BME280;64673;52.276;10.560;2023-04-24T00:46:18;99316.78;;;12.17;76.07
75991;BME280;64673;52.276;10.560;2023-04-24T00:48:44;99319.00;;;12.15;75.75
75991;BME280;64673;52.276;10.560;2023-04-24T00:51:09;99317.44;;;12.23;74.78
75991;BME280;64673;52.276;10.560;2023-04-24T00:53:35;99320.19;;;12.31;74.55
75991;BME280;64673;52.276;10.560;2023-04-24T00:56:01;99316.78;;;12.17;74.93
75991;BME280;64673;52.276;10.560;2023-04-24T00:58:27;99319.63;;;12.12;75.16
75991;BME280;64673;52.276;10.560;2023-04-24T01:00:53;99321.69;;;12.15;75.18
75991;BME280;64673;52.276;10.560;2023-04-24T01:03:23;99313.63;;;11.93;76.09
75991;BME280;64673;52.276;10.560;2023-04-24T01:05:50;99319.81;;;12.16;74.91
75991;BME280;64673;52.276;10.560;2023-04-24T01:08:16;99324.94;;;11.95;76.54
75991;BME280;64673;52.276;10.560;2023-04-24T01:10:41;99316.66;;;12.22;74.20
75991;BME280;64673;52.276;10.560;2023-04-24T01:13:10;99314.09;;;12.17;74.44
75991;BME280;64673;52.276;10.560;2023-04-24T01:15:35;99320.28;;;12.18;74.32
75991;BME280;64673;52.276;10.560;2023-04-24T01:18:01;99315.81;;;11.91;76.57
75991;BME280;64673;52.276;10.560;2023-04-24T01:20:26;99310.66;;;12.03;75.05
75991;BME280;64673;52.276;10.560;2023-04-24T01:22:54;99311.41;;;11.95;75.28
75991;BME280;64673;52.276;10.560;2023-04-24T01:25:20;99301.66;;;11.85;75.98
75991;BME280;64673;52.276;10.560;2023-04-24T01:27:45;99310.06;;;11.84;76.57
75991;BME280;64673;52.276;10.560;2023-04-24T01:30:12;99302.28;;;11.68;77.56
75991;BME280;64673;52.276;10.560;2023-04-24T01:32:38;99297.66;;;11.83;75.75
75991;BME280;64673;52.276;10.560;2023-04-24T01:35:04;99291.50;;;11.68;77.15
75991;BME280;64673;52.276;10.560;2023-04-24T01:37:30;99293.94;;;11.56;78.01
75991;BME280;64673;52.276;10.560;2023-04-24T01:39:57;99298.63;;;11.64;77.47
75991;BME280;64673;52.276;10.560;2023-04-24T01:42:22;99291.91;;;11.76;76.08
75991;BME280;64673;52.276;10.560;2023-04-24T01:44:48;99297.69;;;11.69;77.28
75991;BME280;64673;52.276;10.560;2023-04-24T01:47:13;99295.59;;;11.66;76.42
75991;BME280;64673;52.276;10.560;2023-04-24T01:49:39;99294.78;;;11.79;76.23
75991;BME280;64673;52.276;10.560;2023-04-24T01:52:04;99291.19;;;11.70;76.65
75991;BME280;64673;52.276;10.560;2023-04-24T01:54:30;99301.75;;;11.58;77.56
75991;BME280;64673;52.276;10.560;2023-04-24T01:56:55;99303.53;;;11.62;77.33
75991;BME280;64673;52.276;10.560;2023-04-24T01:59:21;99294.94;;;11.60;76.90
75991;BME280;64673;52.276;10.560;2023-04-24T02:01:48;99298.13;;;11.62;77.26
75991;BME280;64673;52.276;10.560;2023-04-24T02:04:13;99291.94;;;11.62;76.54
75991;BME280;64673;52.276;10.560;2023-04-24T02:06:40;99283.69;;;11.67;76.37
75991;BME280;64673;52.276;10.560;2023-04-24T02:09:05;99302.13;;;11.65;76.59
75991;BME280;64673;52.276;10.560;2023-04-24T02:11:31;99307.59;;;11.51;77.38
75991;BME280;64673;52.276;10.560;2023-04-24T02:13:56;99297.03;;;11.41;77.76
75991;BME280;64673;52.276;10.560;2023-04-24T02:16:21;99299.72;;;11.41;77.95
75991;BME280;64673;52.276;10.560;2023-04-24T02:18:47;99309.66;;;11.32;78.10
75991;BME280;64673;52.276;10.560;2023-04-24T02:21:12;99305.84;;;11.33;78.07
75991;BME280;64673;52.276;10.560;2023-04-24T02:23:37;99298.28;;;11.21;78.78
75991;BME280;64673;52.276;10.560;2023-04-24T02:26:03;99286.88;;;11.24;78.17
75991;BME280;64673;52.276;10.560;2023-04-24T02:28:28;99292.25;;;11.24;79.13
75991;BME280;64673;52.276;10.560;2023-04-24T02:30:53;99283.59;;;11.14;78.43
75991;BME280;64673;52.276;10.560;2023-04-24T02:33:19;99274.94;;;11.03;78.94
75991;BME280;64673;52.276;10.560;2023-04-24T02:35:44;99281.91;;;11.04;79.54
75991;BME280;64673;52.276;10.560;2023-04-24T02:38:10;99275.41;;;11.19;78.86
75991;BME280;64673;52.276;10.560;2023-04-24T02:40:35;99287.19;;;11.23;78.42
75991;BME280;64673;52.276;10.560;2023-04-24T02:43:00;99282.69;;;11.18;78.61
75991;BME280;64673;52.276;10.560;2023-04-24T02:45:26;99281.13;;;11.04;79.52
75991;BME280;64673;52.276;10.560;2023-04-24T02:47:51;99283.50;;;11.19;78.10
75991;BME280;64673;52.276;10.560;2023-04-24T02:50:16;99280.09;;;11.13;78.63
75991;BME280;64673;52.276;10.560;2023-04-24T02:52:42;99283.44;;;11.10;78.75
75991;BME280;64673;52.276;10.560;2023-04-24T02:55:07;99276.72;;;11.08;78.42
75991;BME280;64673;52.276;10.560;2023-04-24T02:57:33;99272.94;;;11.09;78.80
75991;BME280;64673;52.276;10.560;2023-04-24T02:59:59;99271.06;;;10.95;78.90
75991;BME280;64673;52.276;10.560;2023-04-24T03:02:24;99286.66;;;10.98;79.48
75991;BME280;64673;52.276;10.560;2023-04-24T03:04:50;99273.78;;;10.82;79.70
75991;BME280;64673;52.276;10.560;2023-04-24T03:07:15;99290.47;;;10.70;79.68
75991;BME280;64673;52.276;10.560;2023-04-24T03:09:41;99285.97;;;10.79;79.56
75991;BME280;64673;52.276;10.560;2023-04-24T03:12:07;99284.97;;;10.75;79.15
75991;BME280;64673;52.276;10.560;2023-04-24T03:14:33;99294.59;;;10.68;80.14
75991;BME280;64673;52.276;10.560;2023-04-24T03:16:58;99284.59;;;10.68;79.54
75991;BME280;64673;52.276;10.560;2023-04-24T03:19:24;99288.69;;;10.38;81.13
75991;BME280;64673;52.276;10.560;2023-04-24T03:21:49;99283.72;;;10.59;79.21
75991;BME280;64673;52.276;10.560;2023-04-24T03:24:15;99292.09;;;10.57;79.65
75991;BME280;64673;52.276;10.560;2023-04-24T03:26:40;99288.50;;;10.48;80.14
75991;BME280;64673;52.276;10.560;2023-04-24T03:29:05;99279.81;;;10.38;80.98
75991;BME280;64673;52.276;10.560;2023-04-24T03:31:31;99279.00;;;10.51;79.12
75991;BME280;64673;52.276;10.560;2023-04-24T03:33:56;99278.69;;;10.39;79.96
75991;BME280;64673;52.276;10.560;2023-04-24T03:36:22;99285.09;;;10.43;80.14
75991;BME280;64673;52.276;10.560;2023-04-24T03:38:48;99283.78;;;10.54;79.17
75991;BME280;64673;52.276;10.560;2023-04-24T03:41:13;99274.81;;;10.45;78.58
75991;BME280;64673;52.276;10.560;2023-04-24T03:43:38;99273.41;;;10.47;78.93
75991;BME280;64673;52.276;10.560;2023-04-24T03:46:05;99276.41;;;10.46;78.92
75991;BME280;64673;52.276;10.560;2023-04-24T03:48:30;99268.09;;;10.28;78.97
75991;BME280;64673;52.276;10.560;2023-04-24T03:50:55;99266.66;;;10.17;80.03
75991;BME280;64673;52.276;10.560;2023-04-24T03:53:21;99263.63;;;10.24;79.56
75991;BME280;64673;52.276;10.560;2023-04-24T03:55:46;99261.06;;;10.00;81.14
75991;BME280;64673;52.276;10.560;2023-04-24T03:58:12;99262.94;;;9.86;80.98
75991;BME280;64673;52.276;10.560;2023-04-24T04:00:39;99263.03;;;9.81;80.36
75991;BME280;64673;52.276;10.560;2023-04-24T04:03:05;99262.53;;;9.79;81.17
75991;BME280;64673;52.276;10.560;2023-04-24T04:05:30;99262.69;;;9.69;81.29
75991;BME280;64673;52.276;10.560;2023-04-24T04:07:56;99267.09;;;9.46;82.83
75991;BME280;64673;52.276;10.560;2023-04-24T04:10:21;99265.78;;;9.43;82.81
75991;BME280;64673;52.276;10.560;2023-04-24T04:12:46;99264.00;;;9.39;82.55
75991;BME280;64673;52.276;10.560;2023-04-24T04:15:12;99277.50;;;9.34;82.95
75991;BME280;64673;52.276;10.560;2023-04-24T04:17:38;99273.97;;;9.38;83.03
75991;BME280;64673;52.276;10.560;2023-04-24T04:20:04;99270.13;;;9.26;84.03
75991;BME280;64673;52.276;10.560;2023-04-24T04:22:33;99268.22;;;9.26;83.62
75991;BME280;64673;52.276;10.560;2023-04-24T04:24:59;99265.44;;;9.50;82.54
75991;BME280;64673;52.276;10.560;2023-04-24T04:27:24;99273.53;;;9.31;83.44
75991;BME280;64673;52.276;10.560;2023-04-24T04:29:49;99275.19;;;9.27;83.12
75991;BME280;64673;52.276;10.560;2023-04-24T04:32:15;99278.91;;;9.31;83.46
75991;BME280;64673;52.276;10.560;2023-04-24T04:34:41;99274.31;;;9.13;84.22
75991;BME280;64673;52.276;10.560;2023-04-24T04:37:06;99285.22;;;9.03;84.77
75991;BME280;64673;52.276;10.560;2023-04-24T04:39:32;99274.38;;;9.45;82.76
75991;BME280;64673;52.276;10.560;2023-04-24T04:41:57;99272.13;;;9.34;83.99
75991;BME280;64673;52.276;10.560;2023-04-24T04:44:23;99275.78;;;9.24;84.47
75991;BME280;64673;52.276;10.560;2023-04-24T04:46:49;99273.66;;;9.02;85.60
75991;BME280;64673;52.276;10.560;2023-04-24T04:49:15;99268.28;;;8.84;86.42
75991;BME280;64673;52.276;10.560;2023-04-24T04:51:41;99275.00;;;9.42;84.64
75991;BME280;64673;52.276;10.560;2023-04-24T04:54:07;99276.00;;;9.79;82.62
75991;BME280;64673;52.276;10.560;2023-04-24T04:56:32;99285.50;;;9.90;81.94
75991;BME280;64673;52.276;10.560;2023-04-24T04:58:58;99290.81;;;9.63;84.75
75991;BME280;64673;52.276;10.560;2023-04-24T05:01:24;99286.22;;;9.96;82.66
75991;BME280;64673;52.276;10.560;2023-04-24T05:03:50;99290.41;;;10.02;82.93
75991;BME280;64673;52.276;10.560;2023-04-24T05:06:16;99291.53;;;10.14;83.03
75991;BME280;64673;52.276;10.560;2023-04-24T05:08:42;99297.75;;;10.28;81.34
75991;BME280;64673;52.276;10.560;2023-04-24T05:11:07;99294.09;;;10.38;81.54
75991;BME280;64673;52.276;10.560;2023-04-24T05:13:32;99297.66;;;10.61;80.52
75991;BME280;64673;52.276;10.560;2023-04-24T05:15:58;99299.09;;;10.58;82.01
75991;BME280;64673;52.276;10.560;2023-04-24T05:18:24;99297.78;;;10.70;80.65
75991;BME280;64673;52.276;10.560;2023-04-24T05:20:49;99286.97;;;10.83;79.34
75991;BME280;64673;52.276;10.560;2023-04-24T05:23:14;99296.56;;;10.89;79.43
75991;BME280;64673;52.276;10.560;2023-04-24T05:25:40;99286.44;;;10.95;78.74
75991;BME280;64673;52.276;10.560;2023-04-24T05:28:11;99283.94;;;10.98;77.83
75991;BME280;64673;52.276;10.560;2023-04-24T05:30:36;99286.66;;;10.98;79.17
75991;BME280;64673;52.276;10.560;2023-04-24T05:33:01;99285.47;;;10.91;78.91
75991;BME280;64673;52.276;10.560;2023-04-24T05:35:27;99284.34;;;10.92;78.79
75991;BME280;64673;52.276;10.560;2023-04-24T05:37:53;99292.53;;;11.00;78.37
75991;BME280;64673;52.276;10.560;2023-04-24T05:40:18;99286.81;;;11.02;78.85
75991;BME280;64673;52.276;10.560;2023-04-24T05:42:43;99294.72;;;11.12;77.78
75991;BME280;64673;52.276;10.560;2023-04-24T05:45:09;99296.13;;;11.10;78.98
75991;BME280;64673;52.276;10.560;2023-04-24T05:47:39;99293.91;;;11.12;78.02
75991;BME280;64673;52.276;10.560;2023-04-24T05:50:05;99298.16;;;11.26;77.77
75991;BME280;64673;52.276;10.560;2023-04-24T05:52:31;99302.66;;;11.31;78.19
75991;BME280;64673;52.276;10.560;2023-04-24T05:54:56;99296.63;;;11.34;78.30
75991;BME280;64673;52.276;10.560;2023-04-24T05:57:21;99293.22;;;11.42;77.59
75991;BME280;64673;52.276;10.560;2023-04-24T05:59:47;99301.19;;;11.47;77.13
75991;BME280;64673;52.276;10.560;2023-04-24T06:02:18;99295.13;;;11.64;76.49
75991;BME280;64673;52.276;10.560;2023-04-24T06:04:44;99299.06;;;11.80;77.92
75991;BME280;64673;52.276;10.560;2023-04-24T06:07:12;99292.25;;;11.83;75.63
75991;BME280;64673;52.276;10.560;2023-04-24T06:09:38;99306.06;;;11.81;74.12
75991;BME280;64673;52.276;10.560;2023-04-24T06:12:03;99301.81;;;11.89;74.77
75991;BME280;64673;52.276;10.560;2023-04-24T06:14:29;99296.63;;;11.92;74.80
75991;BME280;64673;52.276;10.560;2023-04-24T06:16:54;99298.41;;;11.97;73.45
75991;BME280;64673;52.276;10.560;2023-04-24T06:19:20;99304.41;;;11.94;74.67
75991;BME280;64673;52.276;10.560;2023-04-24T06:21:45;99304.41;;;11.94;73.90
75991;BME280;64673;52.276;10.560;2023-04-24T06:24:10;99307.59;;;11.96;74.50
75991;BME280;64673;52.276;10.560;2023-04-24T06:26:36;99316.81;;;11.95;74.11
75991;BME280;64673;52.276;10.560;2023-04-24T06:29:02;99313.72;;;11.88;75.52
75991;BME280;64673;52.276;10.560;2023-04-24T06:31:27;99305.53;;;11.93;74.58
75991;BME280;64673;52.276;10.560;2023-04-24T06:33:53;99303.84;;;12.05;74.19
75991;BME280;64673;52.276;10.560;2023-04-24T06:36:19;99303.06;;;12.05;74.63
75991;BME280;64673;52.276;10.560;2023-04-24T06:38:44;99303.53;;;12.07;74.97
75991;BME280;64673;52.276;10.560;2023-04-24T06:41:11;99300.47;;;12.00;75.38
75991;BME280;64673;52.276;10.560;2023-04-24T06:43:37;99290.72;;;11.90;75.76
75991;BME280;64673;52.276;10.560;2023-04-24T06:46:04;99298.06;;;11.98;76.45
75991;BME280;64673;52.276;10.560;2023-04-24T06:48:30;99288.00;;;11.90;76.91
75991;BME280;64673;52.276;10.560;2023-04-24T06:50:55;99305.22;;;11.94;76.55
75991;BME280;64673;52.276;10.560;2023-04-24T06:53:21;99301.44;;;12.04;76.19
75991;BME280;64673;52.276;10.560;2023-04-24T06:55:46;99297.28;;;12.29;75.78
75991;BME280;64673;52.276;10.560;2023-04-24T06:58:12;99299.53;;;12.35;75.15
75991;BME280;64673;52.276;10.560;2023-04-24T07:00:37;99303.47;;;12.29;75.96
75991;BME280;64673;52.276;10.560;2023-04-24T07:03:03;99295.06;;;12.31;74.02
75991;BME280;64673;52.276;10.560;2023-04-24T07:05:31;99294.75;;;12.32;75.75
75991;BME280;64673;52.276;10.560;2023-04-24T07:07:56;99300.16;;;12.32;74.65
75991;BME280;64673;52.276;10.560;2023-04-24T07:10:23;99294.75;;;12.32;74.22
75991;BME280;64673;52.276;10.560;2023-04-24T07:12:49;99297.66;;;12.44;74.99
75991;BME280;64673;52.276;10.560;2023-04-24T07:15:14;99297.44;;;12.72;74.20
75991;BME280;64673;52.276;10.560;2023-04-24T07:17:40;99302.69;;;12.77;73.03
75991;BME280;64673;52.276;10.560;2023-04-24T07:20:08;99301.13;;;12.84;72.13
75991;BME280;64673;52.276;10.560;2023-04-24T07:22:35;99305.78;;;13.01;71.85
75991;BME280;64673;52.276;10.560;2023-04-24T07:25:00;99299.78;;;13.30;71.99
75991;BME280;64673;52.276;10.560;2023-04-24T07:27:26;99303.94;;;13.28;70.19
75991;BME280;64673;52.276;10.560;2023-04-24T07:29:52;99305.03;;;13.18;69.88
75991;BME280;64673;52.276;10.560;2023-04-24T07:32:17;99308.69;;;13.13;70.54
75991;BME280;64673;52.276;10.560;2023-04-24T07:34:42;99322.16;;;12.96;71.37
75991;BME280;64673;52.276;10.560;2023-04-24T07:37:07;99351.19;;;12.03;65.40
75991;BME280;64673;52.276;10.560;2023-04-24T07:39:33;99346.63;;;11.67;65.32
75991;BME280;64673;52.276;10.560;2023-04-24T07:41:58;99341.81;;;11.42;66.32
75991;BME280;64673;52.276;10.560;2023-04-24T07:44:24;99367.28;;;10.86;69.45
75991;BME280;64673;52.276;10.560;2023-04-24T07:46:49;99361.56;;;10.60;74.21
75991;BME280;64673;52.276;10.560;2023-04-24T07:49:15;99361.16;;;10.53;77.90
75991;BME280;64673;52.276;10.560;2023-04-24T07:51:40;99360.56;;;10.43;78.84
75991;BME280;64673;52.276;10.560;2023-04-24T07:54:06;99360.66;;;10.05;79.20
75991;BME280;64673;52.276;10.560;2023-04-24T07:56:32;99367.72;;;10.01;83.05
75991;BME280;64673;52.276;10.560;2023-04-24T07:58:58;99372.34;;;10.14;82.25
75991;BME280;64673;52.276;10.560;2023-04-24T08:01:23;99374.41;;;10.22;82.93
75991;BME280;64673;52.276;10.560;2023-04-24T08:03:48;99384.22;;;10.59;83.69
75991;BME280;64673;52.276;10.560;2023-04-24T08:06:14;99392.03;;;10.47;83.52
75991;BME280;64673;52.276;10.560;2023-04-24T08:08:39;99389.44;;;10.56;83.21
75991;BME280;64673;52.276;10.560;2023-04-24T08:11:04;99389.66;;;10.73;80.74
75991;BME280;64673;52.276;10.560;2023-04-24T08:13:30;99400.16;;;10.88;84.48
75991;BME280;64673;52.276;10.560;2023-04-24T08:15:56;99396.53;;;11.20;80.06
75991;BME280;64673;52.276;10.560;2023-04-24T08:18:22;99396.03;;;11.32;81.78
75991;BME280;64673;52.276;10.560;2023-04-24T08:20:47;99399.31;;;11.43;80.65
75991;BME280;64673;52.276;10.560;2023-04-24T08:23:12;99395.22;;;11.67;79.80
75991;BME280;64673;52.276;10.560;2023-04-24T08:25:38;99391.16;;;11.56;78.71
75991;BME280;64673;52.276;10.560;2023-04-24T08:28:05;99388.97;;;11.94;79.01
75991;BME280;64673;52.276;10.560;2023-04-24T08:30:31;99386.38;;;11.89;78.25
75991;BME280;64673;52.276;10.560;2023-04-24T08:32:57;99380.66;;;11.91;77.78
75991;BME280;64673;52.276;10.560;2023-04-24T08:35:22;99382.69;;;11.49;77.56
75991;BME280;64673;52.276;10.560;2023-04-24T08:37:48;99379.03;;;11.67;78.55
75991;BME280;64673;52.276;10.560;2023-04-24T08:40:14;99376.44;;;11.62;78.20
75991;BME280;64673;52.276;10.560;2023-04-24T08:42:42;99372.81;;;11.67;78.71
75991;BME280;64673;52.276;10.560;2023-04-24T08:45:09;99378.91;;;11.72;76.16
75991;BME280;64673;52.276;10.560;2023-04-24T08:47:35;99379.47;;;11.97;76.20
75991;BME280;64673;52.276;10.560;2023-04-24T08:50:02;99376.91;;;11.78;71.84
75991;BME280;64673;52.276;10.560;2023-04-24T08:52:28;99378.50;;;12.24;73.94
75991;BME280;64673;52.276;10.560;2023-04-24T08:54:54;99375.63;;;12.51;70.99
75991;BME280;64673;52.276;10.560;2023-04-24T08:57:20;99379.03;;;12.65;71.32
75991;BME280;64673;52.276;10.560;2023-04-24T08:59:46;99382.25;;;12.36;69.71
75991;BME280;64673;52.276;10.560;2023-04-24T09:02:12;99384.75;;;12.64;71.61
75991;BME280;64673;52.276;10.560;2023-04-24T09:04:40;99389.34;;;12.55;67.57
75991;BME280;64673;52.276;10.560;2023-04-24T09:07:06;99397.09;;;12.48;64.10
75991;BME280;64673;52.276;10.560;2023-04-24T09:09:33;99402.25;;;12.58;63.94
75991;BME280;64673;52.276;10.560;2023-04-24T09:11:59;99395.56;;;12.64;63.43
75991;BME280;64673;52.276;10.560;2023-04-24T09:14:25;99393.94;;;12.54;62.59
75991;BME280;64673;52.276;10.560;2023-04-24T09:16:51;99405.72;;;12.89;61.12
75991;BME280;64673;52.276;10.560;2023-04-24T09:19:16;99391.13;;;13.07;60.78
75991;BME280;64673;52.276;10.560;2023-04-24T09:21:45;99412.47;;;13.00;60.50
75991;BME280;64673;52.276;10.560;2023-04-24T09:24:21;99404.75;;;12.85;60.37
75991;BME280;64673;52.276;10.560;2023-04-24T09:26:58;99402.72;;;12.91;61.07
75991;BME280;64673;52.276;10.560;2023-04-24T09:29:24;99405.34;;;13.13;60.27
75991;BME280;64673;52.276;10.560;2023-04-24T09:31:50;99396.00;;;13.28;58.74
75991;BME280;64673;52.276;10.560;2023-04-24T09:34:21;99401.59;;;13.31;57.18
75991;BME280;64673;52.276;10.560;2023-04-24T09:36:46;99399.88;;;13.61;59.45
75991;BME280;64673;52.276;10.560;2023-04-24T09:39:14;99397.44;;;13.34;57.30
75991;BME280;64673;52.276;10.560;2023-04-24T09:44:15;99396.09;;;13.14;60.03
75991;BME280;64673;52.276;10.560;2023-04-24T09:46:42;99407.47;;;12.94;59.55
75991;BME280;64673;52.276;10.560;2023-04-24T09:49:10;99395.25;;;13.05;56.64
75991;BME280;64673;52.276;10.560;2023-04-24T09:51:37;99403.31;;;13.18;56.91
75991;BME280;64673;52.276;10.560;2023-04-24T09:54:19;99409.16;;;13.12;58.21
75991;BME280;64673;52.276;10.560;2023-04-24T09:56:47;99406.50;;;13.21;56.74
75991;BME280;64673;52.276;10.560;2023-04-24T09:59:14;99407.81;;;13.32;57.33
75991;BME280;64673;52.276;10.560;2023-04-24T10:01:39;99421.81;;;13.34;57.35
75991;BME280;64673;52.276;10.560;2023-04-24T10:06:43;99421.53;;;13.70;55.47
75991;BME280;64673;52.276;10.560;2023-04-24T10:09:09;99417.34;;;13.38;58.44
75991;BME280;64673;52.276;10.560;2023-04-24T10:11:37;99410.13;;;13.16;56.15
75991;BME280;64673;52.276;10.560;2023-04-24T10:14:03;99418.16;;;12.90;58.47
75991;BME280;64673;52.276;10.560;2023-04-24T10:16:29;99417.88;;;13.00;57.57
75991;BME280;64673;52.276;10.560;2023-04-24T10:18:55;99420.78;;;13.12;57.97
75991;BME280;64673;52.276;10.560;2023-04-24T10:21:24;99423.06;;;13.19;56.47
75991;BME280;64673;52.276;10.560;2023-04-24T10:23:50;99420.97;;;13.16;58.10
75991;BME280;64673;52.276;10.560;2023-04-24T10:26:16;99421.75;;;13.16;57.06
75991;BME280;64673;52.276;10.560;2023-04-24T10:28:46;99413.75;;;13.03;57.37
75991;BME280;64673;52.276;10.560;2023-04-24T10:31:13;99409.72;;;12.92;57.24
75991;BME280;64673;52.276;10.560;2023-04-24T10:33:41;99416.00;;;13.09;57.46
75991;BME280;64673;52.276;10.560;2023-04-24T10:36:08;99424.88;;;13.01;55.62
75991;BME280;64673;52.276;10.560;2023-04-24T10:38:35;99432.31;;;13.27;55.15
75991;BME280;64673;52.276;10.560;2023-04-24T10:41:12;99439.03;;;13.38;55.60
75991;BME280;64673;52.276;10.560;2023-04-24T10:43:44;99436.31;;;13.38;56.64
75991;BME280;64673;52.276;10.560;2023-04-24T10:46:10;99427.31;;;13.11;54.79
75991;BME280;64673;52.276;10.560;2023-04-24T10:48:42;99432.09;;;13.14;55.48
75991;BME280;64673;52.276;10.560;2023-04-24T10:51:11;99435.81;;;13.36;57.70
75991;BME280;64673;52.276;10.560;2023-04-24T10:53:38;99428.53;;;13.45;58.16
75991;BME280;64673;52.276;10.560;2023-04-24T10:56:06;99430.28;;;13.41;56.86
75991;BME280;64673;52.276;10.560;2023-04-24T10:58:42;99438.50;;;13.18;54.75
75991;BME280;64673;52.276;10.560;2023-04-24T11:03:57;99439.94;;;12.94;56.37
75991;BME280;64673;52.276;10.560;2023-04-24T11:06:30;99448.75;;;12.99;55.50
75991;BME280;64673;52.276;10.560;2023-04-24T11:09:03;99442.75;;;13.11;54.39
75991;BME280;64673;52.276;10.560;2023-04-24T11:11:30;99429.94;;;13.34;55.10
75991;BME280;64673;52.276;10.560;2023-04-24T11:19:09;99440.06;;;14.02;54.34
75991;BME280;64673;52.276;10.560;2023-04-24T11:21:44;99446.75;;;13.87;53.20
75991;BME280;64673;52.276;10.560;2023-04-24T11:27:13;99434.13;;;13.57;53.18
75991;BME280;64673;52.276;10.560;2023-04-24T11:29:49;99445.13;;;13.61;52.42
75991;BME280;64673;52.276;10.560;2023-04-24T11:35:01;99434.16;;;14.00;52.44
75991;BME280;64673;52.276;10.560;2023-04-24T11:37:29;99436.22;;;13.95;53.66
75991;BME280;64673;52.276;10.560;2023-04-24T11:39:58;99437.16;;;13.64;51.80
75991;BME280;64673;52.276;10.560;2023-04-24T11:42:24;99427.63;;;13.75;54.06
75991;BME280;64673;52.276;10.560;2023-04-24T11:44:52;99431.72;;;13.47;53.92
75991;BME280;64673;52.276;10.560;2023-04-24T11:47:18;99434.91;;;13.49;55.68
75991;BME280;64673;52.276;10.560;2023-04-24T11:49:43;99436.19;;;13.43;52.43
75991;BME280;64673;52.276;10.560;2023-04-24T11:52:09;99438.09;;;13.51;53.52
75991;BME280;64673;52.276;10.560;2023-04-24T11:54:35;99437.38;;;13.19;53.83
75991;BME280;64673;52.276;10.560;2023-04-24T11:57:04;99425.66;;;13.41;53.36
75991;BME280;64673;52.276;10.560;2023-04-24T11:59:35;99435.50;;;13.29;54.54
75991;BME280;64673;52.276;10.560;2023-04-24T12:02:01;99456.66;;;13.27;54.97
75991;BME280;64673;52.276;10.560;2023-04-24T12:04:26;99441.59;;;13.03;55.16
75991;BME280;64673;52.276;10.560;2023-04-24T12:07:04;99440.22;;;13.14;54.20
75991;BME280;64673;52.276;10.560;2023-04-24T12:09:58;99432.50;;;13.39;53.51
75991;BME280;64673;52.276;10.560;2023-04-24T12:12:26;99431.38;;;13.40;53.27
75991;BME280;64673;52.276;10.560;2023-04-24T12:14:54;99430.47;;;13.53;53.92
75991;BME280;64673;52.276;10.560;2023-04-24T12:17:30;99432.78;;;13.20;53.66
75991;BME280;64673;52.276;10.560;2023-04-24T12:20:04;99429.00;;;13.38;55.22
75991;BME280;64673;52.276;10.560;2023-04-24T12:23:02;99422.47;;;13.48;55.88
75991;BME280;64673;52.276;10.560;2023-04-24T12:25:31;99432.00;;;13.37;54.76
75991;BME280;64673;52.276;10.560;2023-04-24T12:30:28;99426.97;;;13.61;55.71
75991;BME280;64673;52.276;10.560;2023-04-24T12:32:57;99426.19;;;13.12;55.10
75991;BME280;64673;52.276;10.560;2023-04-24T12:35:24;99429.22;;;13.11;56.29
75991;BME280;64673;52.276;10.560;2023-04-24T12:37:50;99434.41;;;12.99;55.28
75991;BME280;64673;52.276;10.560;2023-04-24T12:40:16;99438.47;;;12.79;56.43
75991;BME280;64673;52.276;10.560;2023-04-24T12:42:45;99429.78;;;12.60;58.58
75991;BME280;64673;52.276;10.560;2023-04-24T12:45:11;99443.69;;;12.75;59.26
75991;BME280;64673;52.276;10.560;2023-04-24T12:47:41;99442.16;;;12.30;60.49
75991;BME280;64673;52.276;10.560;2023-04-24T12:50:08;99442.09;;;12.21;62.33
75991;BME280;64673;52.276;10.560;2023-04-24T12:52:33;99442.44;;;12.51;59.48
75991;BME280;64673;52.276;10.560;2023-04-24T12:55:00;99450.47;;;12.95;58.08
75991;BME280;64673;52.276;10.560;2023-04-24T12:57:27;99443.03;;;13.01;59.03
75991;BME280;64673;52.276;10.560;2023-04-24T12:59:54;99444.69;;;12.79;58.79
75991;BME280;64673;52.276;10.560;2023-04-24T13:02:21;99454.22;;;12.77;58.63
75991;BME280;64673;52.276;10.560;2023-04-24T13:04:47;99457.75;;;12.55;58.83
75991;BME280;64673;52.276;10.560;2023-04-24T13:07:13;99462.38;;;12.32;58.69